createdAt,value
2022-12-09T00:00:08.467Z,4.70
2022-12-09T00:02:37.549Z,4.60
2022-12-09T00:05:06.677Z,4.40
2022-12-09T00:07:37.417Z,3.90
2022-12-09T00:10:06.941Z,4.10
2022-12-09T00:12:35.648Z,4.40
2022-12-09T00:15:04.662Z,3.90
2022-12-09T00:17:33.571Z,4.40
2022-12-09T00:20:02.016Z,4.00
2022-12-09T00:22:30.675Z,4.40
2022-12-09T00:24:59.436Z,3.90
2022-12-09T00:27:28.386Z,3.80
2022-12-09T00:29:56.888Z,3.80
2022-12-09T00:32:25.403Z,3.90
2022-12-09T00:34:53.920Z,3.60
2022-12-09T00:37:22.503Z,3.50
2022-12-09T00:39:50.940Z,3.60
2022-12-09T00:42:19.665Z,3.60
2022-12-09T00:44:48.259Z,3.60
2022-12-09T00:47:16.899Z,3.40
2022-12-09T00:49:45.374Z,3.20
2022-12-09T00:52:13.766Z,3.30
2022-12-09T00:54:42.303Z,3.30
2022-12-09T00:57:10.849Z,3.60
2022-12-09T00:59:39.544Z,3.40
2022-12-09T01:02:08.372Z,3.30
2022-12-09T01:04:37.234Z,3.30
2022-12-09T01:07:05.758Z,3.50
2022-12-09T01:09:35.873Z,3.50
2022-12-09T01:12:04.851Z,3.60
2022-12-09T01:14:33.522Z,3.60
2022-12-09T01:17:02.007Z,3.60
2022-12-09T01:19:30.970Z,3.80
2022-12-09T01:21:59.356Z,3.90
2022-12-09T01:24:28.133Z,3.60
2022-12-09T01:26:56.853Z,3.50
2022-12-09T01:29:25.301Z,3.50
2022-12-09T01:31:56.444Z,3.80
2022-12-09T01:34:24.887Z,3.90
2022-12-09T01:36:53.336Z,4.00
2022-12-09T01:39:21.826Z,4.10
2022-12-09T01:41:52.976Z,4.00
2022-12-09T01:44:26.071Z,3.70
2022-12-09T01:46:59.287Z,3.80
2022-12-09T01:49:36.761Z,3.70
2022-12-09T01:52:14.693Z,3.40
2022-12-09T01:54:46.913Z,3.70
2022-12-09T01:57:15.974Z,3.30
2022-12-09T01:59:46.116Z,3.40
2022-12-09T02:02:18.876Z,3.50
2022-12-09T02:04:49.215Z,3.30
2022-12-09T02:07:20.508Z,3.30
2022-12-09T02:09:54.150Z,3.60
2022-12-09T02:12:45.348Z,3.50
2022-12-09T02:15:25.222Z,3.50
2022-12-09T02:18:04.611Z,3.60
2022-12-09T02:20:42.294Z,3.60
2022-12-09T02:23:17.051Z,3.90
2022-12-09T02:25:50.528Z,3.90
2022-12-09T02:28:18.956Z,3.90
2022-12-09T02:31:16.213Z,3.90
2022-12-09T02:34:21.111Z,3.80
2022-12-09T02:37:14.506Z,3.90
2022-12-09T02:39:45.995Z,4.20
2022-12-09T02:42:19.900Z,3.90
2022-12-09T02:44:51.471Z,4.10
2022-12-09T02:47:28.267Z,4.10
2022-12-09T02:50:02.297Z,4.30
2022-12-09T02:52:33.109Z,4.20
2022-12-09T02:55:06.228Z,4.20
2022-12-09T02:57:37.833Z,4.30
2022-12-09T03:00:08.958Z,4.30
2022-12-09T03:02:45.396Z,4.30
2022-12-09T03:05:29.293Z,4.30
2022-12-09T03:08:36.341Z,4.40
2022-12-09T03:11:15.321Z,4.50
2022-12-09T03:13:57.673Z,4.80
2022-12-09T03:16:38.484Z,4.80
2022-12-09T03:19:36.231Z,4.80
2022-12-09T03:22:12.275Z,4.40
2022-12-09T03:25:17.771Z,5.00
2022-12-09T03:28:10.485Z,4.50
2022-12-09T03:30:42.619Z,4.70
2022-12-09T03:33:12.914Z,4.90
2022-12-09T03:35:54.271Z,4.70
2022-12-09T03:38:25.430Z,5.10
2022-12-09T03:41:17.239Z,5.00
2022-12-09T03:43:53.775Z,4.70
2022-12-09T03:46:23.919Z,5.00
2022-12-09T03:48:52.607Z,4.70
2022-12-09T03:51:37.548Z,4.70
2022-12-09T03:54:14.707Z,4.80
2022-12-09T03:56:46.978Z,5.10
2022-12-09T03:59:16.804Z,4.90
2022-12-09T04:01:47.317Z,4.80
2022-12-09T04:04:16.992Z,5.00
2022-12-09T04:06:45.724Z,5.30
2022-12-09T04:09:14.841Z,4.80
2022-12-09T04:11:43.580Z,5.30
2022-12-09T04:14:15.570Z,5.00
2022-12-09T04:16:45.571Z,4.90
2022-12-09T04:19:14.429Z,5.00
2022-12-09T04:21:42.833Z,4.90
2022-12-09T04:24:11.662Z,4.80
2022-12-09T04:26:40.133Z,4.90
2022-12-09T04:29:08.838Z,4.80
2022-12-09T04:31:37.377Z,4.80
2022-12-09T04:34:09.476Z,5.10
2022-12-09T04:36:38.901Z,5.00
2022-12-09T04:39:07.720Z,5.00
2022-12-09T04:41:37.531Z,4.90
2022-12-09T04:44:06.524Z,5.30
2022-12-09T04:46:35.409Z,4.80
2022-12-09T04:49:04.790Z,4.80
2022-12-09T04:51:39.171Z,4.90
2022-12-09T04:54:12.321Z,5.00
2022-12-09T04:56:41.646Z,4.90
2022-12-09T04:59:10.426Z,4.70
2022-12-09T05:01:39.252Z,5.00
2022-12-09T05:04:08.047Z,4.70
2022-12-09T05:06:36.786Z,4.90
2022-12-09T05:09:06.115Z,4.80
2022-12-09T05:11:34.820Z,4.70
2022-12-09T05:14:03.799Z,4.90
2022-12-09T05:16:32.410Z,4.90
2022-12-09T05:19:01.540Z,5.00
2022-12-09T05:21:30.869Z,5.30
2022-12-09T05:23:59.586Z,4.90
2022-12-09T05:26:28.295Z,5.30
2022-12-09T05:28:57.252Z,5.30
2022-12-09T05:31:26.262Z,5.10
2022-12-09T05:33:54.839Z,5.00
2022-12-09T05:36:28.488Z,5.00
2022-12-09T05:38:57.256Z,5.10
2022-12-09T05:41:26.740Z,5.10
2022-12-09T05:43:55.504Z,5.40
2022-12-09T05:46:24.298Z,5.10
2022-12-09T05:48:53.245Z,5.00
2022-12-09T05:51:28.549Z,5.40
2022-12-09T05:54:01.169Z,5.40
2022-12-09T05:56:30.047Z,5.40
2022-12-09T05:58:58.901Z,5.10
2022-12-09T06:01:29.279Z,5.10
2022-12-09T06:03:58.045Z,5.10
2022-12-09T06:06:32.406Z,5.30
2022-12-09T06:09:03.048Z,5.20
2022-12-09T06:11:33.580Z,5.40
2022-12-09T06:14:02.184Z,5.40
2022-12-09T06:16:31.254Z,4.80
2022-12-09T06:18:59.986Z,4.80
2022-12-09T06:21:28.691Z,5.10
2022-12-09T06:23:57.444Z,4.90
2022-12-09T06:26:29.864Z,4.90
2022-12-09T06:28:59.725Z,4.90
2022-12-09T06:31:30.534Z,4.90
2022-12-09T06:34:00.193Z,5.00
2022-12-09T06:36:31.306Z,5.00
2022-12-09T06:39:07.584Z,4.70
2022-12-09T06:41:38.132Z,5.00
2022-12-09T06:44:07.437Z,4.60
2022-12-09T06:46:36.340Z,4.40
2022-12-09T06:49:05.582Z,4.60
2022-12-09T06:51:34.580Z,4.60
2022-12-09T06:54:03.142Z,4.80
2022-12-09T06:56:33.338Z,4.80
2022-12-09T06:59:02.007Z,4.60
2022-12-09T07:01:30.810Z,4.40
2022-12-09T07:03:59.553Z,4.60
2022-12-09T07:06:36.231Z,4.60
2022-12-09T07:09:16.604Z,4.40
2022-12-09T07:11:48.284Z,4.70
2022-12-09T07:14:19.331Z,4.20
2022-12-09T07:16:48.980Z,4.40
2022-12-09T07:19:20.180Z,4.50
2022-12-09T07:21:50.085Z,4.60
2022-12-09T07:24:20.376Z,4.20
2022-12-09T07:26:49.544Z,4.10
2022-12-09T07:29:19.380Z,4.10
2022-12-09T07:31:48.954Z,4.40
2022-12-09T07:34:18.515Z,4.60
2022-12-09T07:36:47.431Z,4.20
2022-12-09T07:39:18.548Z,4.50
2022-12-09T07:41:49.288Z,4.40
2022-12-09T07:44:18.086Z,4.40
2022-12-09T07:46:47.278Z,4.50
2022-12-09T07:49:16.727Z,4.40
2022-12-09T07:51:45.845Z,4.40
2022-12-09T07:54:18.318Z,4.40
2022-12-09T07:56:47.074Z,4.70
2022-12-09T07:59:16.893Z,4.40
2022-12-09T08:01:46.185Z,4.70
2022-12-09T08:04:15.285Z,4.40
2022-12-09T08:06:44.537Z,4.50
2022-12-09T08:09:14.860Z,4.40
2022-12-09T08:11:43.571Z,4.40
2022-12-09T08:14:13.457Z,4.60
2022-12-09T08:16:44.614Z,4.40
2022-12-09T08:19:13.963Z,4.70
2022-12-09T08:21:43.550Z,4.60
2022-12-09T08:24:13.876Z,4.50
2022-12-09T08:26:43.234Z,4.40
2022-12-09T08:29:14.036Z,4.70
2022-12-09T08:31:44.372Z,4.40
2022-12-09T08:34:14.212Z,4.60
2022-12-09T08:36:43.419Z,4.50
2022-12-09T08:39:14.355Z,4.50
2022-12-09T08:41:44.689Z,4.40
2022-12-09T08:44:21.631Z,4.70
2022-12-09T08:46:52.300Z,4.40
2022-12-09T08:49:23.318Z,4.40
2022-12-09T08:51:53.673Z,4.70
2022-12-09T08:54:22.580Z,4.60
2022-12-09T08:56:53.082Z,5.00
2022-12-09T08:59:22.209Z,4.80
2022-12-09T09:01:51.550Z,4.80
2022-12-09T09:04:21.942Z,5.00
2022-12-09T09:06:52.608Z,4.80
2022-12-09T09:09:22.554Z,4.80
2022-12-09T09:11:51.854Z,4.70
2022-12-09T09:14:21.020Z,4.80
2022-12-09T09:16:49.945Z,4.80
2022-12-09T09:19:22.675Z,4.80
2022-12-09T09:21:51.721Z,5.10
2022-12-09T09:24:22.939Z,4.80
2022-12-09T09:26:53.222Z,5.00
2022-12-09T09:29:23.967Z,4.50
2022-12-09T09:31:55.359Z,5.00
2022-12-09T09:34:26.980Z,5.00
2022-12-09T09:36:56.982Z,4.40
2022-12-09T09:39:26.617Z,4.60
2022-12-09T09:41:56.549Z,4.40
2022-12-09T09:44:41.910Z,4.70
2022-12-09T09:47:37.766Z,4.70
2022-12-09T09:50:19.628Z,4.50
2022-12-09T09:52:48.648Z,4.40
2022-12-09T09:55:19.400Z,4.40
2022-12-09T09:57:59.566Z,4.50
2022-12-09T10:00:45.367Z,4.40
2022-12-09T10:03:26.873Z,4.40
2022-12-09T10:05:59.703Z,4.40
2022-12-09T10:08:37.876Z,4.50
2022-12-09T10:11:28.141Z,4.50
2022-12-09T10:14:07.078Z,4.40
2022-12-09T10:16:54.460Z,4.60
2022-12-09T10:19:36.985Z,4.50
2022-12-09T10:22:18.895Z,4.90
2022-12-09T10:24:59.971Z,4.60
2022-12-09T10:27:35.759Z,4.50
2022-12-09T10:30:12.105Z,4.50
2022-12-09T10:32:41.486Z,4.90
2022-12-09T10:35:16.623Z,4.80
2022-12-09T10:37:45.351Z,4.40
2022-12-09T10:40:14.431Z,4.50
2022-12-09T10:43:05.010Z,4.40
2022-12-09T10:46:07.899Z,4.20
2022-12-09T10:48:34.433Z,4.40
2022-12-09T10:51:12.434Z,4.40
2022-12-09T10:54:05.169Z,4.40
2022-12-09T10:56:36.842Z,4.10
2022-12-09T10:59:25.786Z,4.70
2022-12-09T11:01:55.704Z,4.40
2022-12-09T11:04:30.622Z,4.50
2022-12-09T11:07:20.896Z,4.40
2022-12-09T11:10:01.266Z,4.70
2022-12-09T11:12:34.811Z,4.70
2022-12-09T11:15:32.491Z,4.40
2022-12-09T11:18:06.108Z,4.10
2022-12-09T11:20:36.580Z,4.40
2022-12-09T11:23:18.239Z,4.40
2022-12-09T11:26:00.192Z,4.70
2022-12-09T11:28:39.543Z,4.40
2022-12-09T11:31:30.403Z,4.70
2022-12-09T11:34:04.840Z,4.40
2022-12-09T11:36:40.580Z,4.30
2022-12-09T11:39:31.890Z,4.70
2022-12-09T11:42:19.843Z,4.70
2022-12-09T11:45:02.141Z,4.70
2022-12-09T11:48:21.130Z,4.40
2022-12-09T11:50:33.432Z,4.70
2022-12-09T11:53:14.220Z,4.50
2022-12-09T11:55:56.487Z,4.50
2022-12-09T11:58:39.784Z,4.60
2022-12-09T12:01:21.489Z,4.70
2022-12-09T12:04:01.475Z,4.40
2022-12-09T12:06:35.128Z,4.70
2022-12-09T12:09:28.534Z,4.40
2022-12-09T12:12:23.098Z,4.40
2022-12-09T12:14:51.541Z,4.60
2022-12-09T12:17:19.973Z,4.40
2022-12-09T12:19:53.130Z,4.40
2022-12-09T12:22:39.766Z,4.70
2022-12-09T12:25:33.048Z,4.40
2022-12-09T12:28:14.244Z,4.50
2022-12-09T12:31:07.405Z,4.40
2022-12-09T12:37:00.541Z,4.50
2022-12-09T12:40:05.371Z,4.40
2022-12-09T12:43:03.011Z,4.40
2022-12-09T12:45:57.008Z,5.00
2022-12-09T12:49:01.011Z,4.70
2022-12-09T12:51:38.679Z,4.40
2022-12-09T12:54:25.990Z,4.40
2022-12-09T12:57:08.022Z,4.70
2022-12-09T12:59:56.547Z,4.70
2022-12-09T13:02:51.639Z,4.60
2022-12-09T13:05:27.273Z,4.50
2022-12-09T13:08:05.094Z,4.40
2022-12-09T13:10:48.911Z,4.70
2022-12-09T13:13:28.169Z,4.70
2022-12-09T13:16:17.381Z,4.40
2022-12-09T13:18:46.304Z,4.40
2022-12-09T13:21:15.445Z,4.40
2022-12-09T13:24:02.221Z,4.30
2022-12-09T13:27:06.596Z,4.10
2022-12-09T13:29:37.912Z,4.10
2022-12-09T13:32:29.500Z,4.10
2022-12-09T13:35:12.244Z,4.60
2022-12-09T13:37:43.636Z,4.10
2022-12-09T13:40:38.543Z,4.20
2022-12-09T13:43:28.608Z,4.10
2022-12-09T13:46:02.067Z,4.10
2022-12-09T13:48:30.662Z,4.20
2022-12-09T13:51:00.762Z,4.10
2022-12-09T13:53:35.426Z,4.10
2022-12-09T13:56:25.388Z,4.20
2022-12-09T13:59:09.112Z,4.10
2022-12-09T14:01:58.537Z,4.40
2022-12-09T14:04:33.164Z,4.30
2022-12-09T14:07:31.174Z,4.10
2022-12-09T14:10:01.178Z,4.20
2022-12-09T14:12:29.562Z,4.10
2022-12-09T14:15:02.761Z,4.10
2022-12-09T14:17:31.155Z,4.20
2022-12-09T14:20:09.668Z,4.20
2022-12-09T14:22:40.505Z,4.10
2022-12-09T14:25:27.354Z,4.30
2022-12-09T14:28:13.895Z,4.40
2022-12-09T14:31:02.039Z,4.30
2022-12-09T14:33:41.923Z,4.40
2022-12-09T14:36:32.909Z,4.30
2022-12-09T14:39:25.470Z,4.20
2022-12-09T14:41:57.950Z,4.60
2022-12-09T14:44:57.890Z,4.40
2022-12-09T14:47:28.944Z,4.40
2022-12-09T14:50:06.980Z,4.30
2022-12-09T14:52:36.546Z,4.40
2022-12-09T14:55:09.953Z,4.50
2022-12-09T14:57:45.076Z,4.40
2022-12-09T15:00:38.192Z,4.50
2022-12-09T15:03:36.920Z,4.40
2022-12-09T15:06:13.206Z,4.50
2022-12-09T15:08:42.809Z,4.70
2022-12-09T15:11:23.286Z,4.60
2022-12-09T15:13:54.701Z,4.40
2022-12-09T15:16:26.606Z,4.40
2022-12-09T15:18:56.022Z,4.50
2022-12-09T15:21:31.328Z,4.40
2022-12-09T15:24:01.040Z,4.50
2022-12-09T15:26:34.234Z,4.40
2022-12-09T15:29:05.927Z,4.60
2022-12-09T15:31:35.625Z,4.70
2022-12-09T15:34:19.353Z,4.40
2022-12-09T15:37:02.127Z,4.40
2022-12-09T15:39:40.985Z,4.40
2022-12-09T15:42:13.674Z,4.50
2022-12-09T15:45:11.630Z,4.50
2022-12-09T15:48:00.438Z,4.60
2022-12-09T15:50:34.308Z,4.60
2022-12-09T15:53:11.191Z,4.40
2022-12-09T15:55:45.525Z,5.00
2022-12-09T15:58:17.115Z,4.70
2022-12-09T16:00:49.878Z,5.00
2022-12-09T16:03:25.264Z,4.80
2022-12-09T16:06:06.090Z,4.70
2022-12-09T16:08:41.475Z,4.80
2022-12-09T16:11:11.264Z,4.70
2022-12-09T16:13:59.016Z,4.70
2022-12-09T16:16:52.773Z,4.80
2022-12-09T16:19:39.563Z,4.80
2022-12-09T16:22:20.450Z,4.80
2022-12-09T16:25:22.825Z,5.00
2022-12-09T16:27:58.870Z,5.00
2022-12-09T16:30:30.237Z,5.00
2022-12-09T16:33:00.439Z,5.30
2022-12-09T16:35:36.673Z,5.10
2022-12-09T16:38:10.011Z,5.00
2022-12-09T16:40:47.717Z,5.00
2022-12-09T16:43:19.884Z,5.30
2022-12-09T16:45:56.750Z,5.10
2022-12-09T16:48:26.965Z,5.40
2022-12-09T16:50:59.691Z,5.10
2022-12-09T16:53:40.152Z,5.10
2022-12-09T16:56:17.931Z,5.20
2022-12-09T16:58:46.380Z,5.00
2022-12-09T17:01:20.237Z,5.40
2022-12-09T17:04:11.667Z,5.40
2022-12-09T17:06:40.080Z,5.30
2022-12-09T17:09:08.448Z,5.20
2022-12-09T17:11:36.925Z,5.30
2022-12-09T17:14:06.004Z,5.40
2022-12-09T17:16:37.701Z,5.60
2022-12-09T17:19:07.824Z,5.60
2022-12-09T17:21:36.307Z,5.40
2022-12-09T17:24:04.896Z,5.60
2022-12-09T17:26:33.305Z,5.40
2022-12-09T17:29:02.237Z,5.60
2022-12-09T17:31:31.200Z,5.60
2022-12-09T17:33:59.634Z,5.40
2022-12-09T17:36:28.089Z,5.50
2022-12-09T17:38:56.476Z,5.70
2022-12-09T17:41:25.035Z,5.60
2022-12-09T17:43:53.580Z,5.60
2022-12-09T17:46:22.310Z,5.90
2022-12-09T17:48:50.725Z,5.80
2022-12-09T17:51:19.434Z,6.00
2022-12-09T17:53:48.500Z,6.00
2022-12-09T17:56:22.125Z,6.10
2022-12-09T17:58:58.179Z,6.10
2022-12-09T18:01:27.168Z,6.20
2022-12-09T18:04:06.258Z,6.20
2022-12-09T18:06:44.157Z,6.30
2022-12-09T18:09:17.989Z,6.30
2022-12-09T18:11:47.279Z,6.30
2022-12-09T18:14:17.017Z,5.80
2022-12-09T18:16:49.955Z,5.80
2022-12-09T18:19:21.463Z,6.00
2022-12-09T18:21:50.079Z,5.90
2022-12-09T18:24:19.101Z,5.80
2022-12-09T18:26:47.490Z,5.70
2022-12-09T18:29:16.461Z,5.70
2022-12-09T18:31:54.056Z,5.40
2022-12-09T18:34:27.646Z,5.40
2022-12-09T18:36:56.280Z,5.60
2022-12-09T18:39:24.701Z,5.60
2022-12-09T18:41:53.392Z,5.60
2022-12-09T18:44:21.809Z,5.60
2022-12-09T18:46:51.534Z,5.60
2022-12-09T18:49:22.641Z,5.60
2022-12-09T18:51:53.497Z,5.60
2022-12-09T18:54:28.226Z,5.60
2022-12-09T18:56:57.113Z,5.50
2022-12-09T18:59:26.306Z,5.60
2022-12-09T19:01:55.318Z,5.60
2022-12-09T19:04:26.339Z,5.80
2022-12-09T19:06:57.850Z,6.00
2022-12-09T19:09:30.883Z,5.80
2022-12-09T19:12:16.441Z,5.80
2022-12-09T19:14:49.133Z,5.50
2022-12-09T19:17:19.541Z,5.30
2022-12-09T19:19:48.209Z,5.60
2022-12-09T19:22:16.593Z,5.20
2022-12-09T19:24:45.153Z,5.30
2022-12-09T19:27:14.169Z,5.10
2022-12-09T19:29:42.608Z,5.00
2022-12-09T19:32:36.575Z,5.00
2022-12-09T19:34:59.659Z,5.00
2022-12-09T19:37:28.088Z,5.00
2022-12-09T19:39:56.484Z,5.30
2022-12-09T19:42:24.910Z,5.20
2022-12-09T19:45:01.344Z,5.00
2022-12-09T19:47:30.713Z,5.10
2022-12-09T19:49:59.164Z,4.90
2022-12-09T19:52:28.097Z,5.00
2022-12-09T19:54:56.471Z,5.60
2022-12-09T19:57:24.935Z,5.10
2022-12-09T19:59:53.322Z,5.20
2022-12-09T20:02:21.696Z,4.70
2022-12-09T20:04:51.039Z,4.80
2022-12-09T20:07:20.801Z,5.10
2022-12-09T20:09:49.519Z,4.70
2022-12-09T20:12:18.041Z,5.00
2022-12-09T20:14:46.498Z,4.70
2022-12-09T20:17:15.004Z,4.70
2022-12-09T20:19:43.431Z,4.70
2022-12-09T20:22:11.809Z,4.90
2022-12-09T20:24:40.191Z,5.10
2022-12-09T20:27:08.577Z,5.30
2022-12-09T20:29:38.143Z,5.00
2022-12-09T20:32:09.262Z,5.00
2022-12-09T20:34:37.744Z,4.80
2022-12-09T20:37:06.661Z,5.30
2022-12-09T20:39:35.182Z,4.90
2022-12-09T20:42:03.623Z,4.90
2022-12-09T20:44:33.131Z,5.00
2022-12-09T20:47:01.581Z,4.70
2022-12-09T20:49:31.022Z,4.70
2022-12-09T20:51:59.713Z,4.60
2022-12-09T20:54:28.168Z,4.70
2022-12-09T20:56:56.588Z,4.90
2022-12-09T20:59:25.965Z,4.60
2022-12-09T21:01:56.614Z,5.00
2022-12-09T21:04:25.184Z,4.40
2022-12-09T21:06:53.741Z,4.40
2022-12-09T21:09:25.540Z,4.70
2022-12-09T21:11:54.638Z,4.70
2022-12-09T21:14:25.719Z,4.70
2022-12-09T21:16:59.198Z,5.00
2022-12-09T21:19:30.790Z,4.40
2022-12-09T21:21:59.419Z,4.60
2022-12-09T21:24:27.849Z,4.40
2022-12-09T21:26:57.944Z,4.40
2022-12-09T21:29:31.654Z,4.70
2022-12-09T21:32:02.122Z,4.20
2022-12-09T21:34:30.868Z,4.30
2022-12-09T21:36:59.569Z,4.20
2022-12-09T21:39:29.059Z,4.40
2022-12-09T21:41:57.523Z,4.40
2022-12-09T21:44:26.288Z,4.40
2022-12-09T21:46:54.874Z,4.40
2022-12-09T21:49:23.461Z,4.40
2022-12-09T21:51:51.892Z,4.40
2022-12-09T21:54:20.308Z,4.30
2022-12-09T21:56:48.715Z,4.40
2022-12-09T21:59:17.132Z,4.60
2022-12-09T22:01:45.675Z,4.10
2022-12-09T22:04:17.155Z,4.40
2022-12-09T22:06:48.037Z,4.20
2022-12-09T22:09:18.384Z,4.10
2022-12-09T22:11:46.781Z,4.10
2022-12-09T22:14:15.214Z,4.10
2022-12-09T22:16:45.761Z,4.10
2022-12-09T22:19:17.968Z,4.00
2022-12-09T22:21:46.863Z,4.00
2022-12-09T22:24:16.004Z,3.90
2022-12-09T22:26:44.773Z,3.80
2022-12-09T22:29:15.484Z,3.90
2022-12-09T22:31:44.661Z,3.90
2022-12-09T22:34:15.746Z,4.00
2022-12-09T22:36:44.370Z,3.80
2022-12-09T22:39:18.818Z,3.90
2022-12-09T22:41:47.390Z,3.80
2022-12-09T22:44:18.578Z,3.80
2022-12-09T22:46:47.153Z,4.10
2022-12-09T22:49:16.436Z,4.10
2022-12-09T22:51:45.996Z,3.90
2022-12-09T22:54:14.819Z,4.00
2022-12-09T22:56:44.249Z,3.80
2022-12-09T22:59:14.415Z,3.80
2022-12-09T23:01:48.048Z,3.80
2022-12-09T23:04:19.008Z,4.00
2022-12-09T23:06:47.440Z,3.90
2022-12-09T23:09:26.126Z,3.80
2022-12-09T23:11:54.664Z,3.60
2022-12-09T23:14:23.223Z,3.70
2022-12-09T23:16:51.635Z,3.70
2022-12-09T23:19:20.489Z,4.10
2022-12-09T23:21:48.881Z,3.60
2022-12-09T23:24:24.368Z,3.60
2022-12-09T23:26:55.448Z,3.70
2022-12-09T23:29:24.715Z,3.80
2022-12-09T23:31:53.448Z,4.00
2022-12-09T23:34:22.014Z,3.50
2022-12-09T23:36:50.649Z,3.80
2022-12-09T23:39:20.120Z,3.80
2022-12-09T23:41:49.044Z,3.90
2022-12-09T23:44:19.896Z,4.20
2022-12-09T23:46:48.652Z,3.80
2022-12-09T23:49:17.938Z,4.10
2022-12-09T23:51:46.497Z,4.40
2022-12-09T23:54:17.096Z,4.10
2022-12-09T23:56:50.637Z,4.20
2022-12-09T23:59:22.111Z,4.10
